createdAt,value
2023-04-10T00:00:43.744Z,38.20
2023-04-10T00:03:22.303Z,34.90
2023-04-10T00:05:50.577Z,32.40
2023-04-10T00:08:18.310Z,33.30
2023-04-10T00:10:46.216Z,34.20
2023-04-10T00:13:14.892Z,37.20
2023-04-10T00:15:43.043Z,37.40
2023-04-10T00:18:11.147Z,36.60
2023-04-10T00:20:38.998Z,38.10
2023-04-10T00:23:06.865Z,39.80
2023-04-10T00:25:35.640Z,38.50
2023-04-10T00:28:03.670Z,36.40
2023-04-10T00:30:31.560Z,34.90
2023-04-10T00:32:59.493Z,35.60
2023-04-10T00:35:28.263Z,36.50
2023-04-10T00:37:57.028Z,35.60
2023-04-10T00:40:25.008Z,36.90
2023-04-10T00:42:52.985Z,34.20
2023-04-10T00:45:20.854Z,36.00
2023-04-10T00:47:48.768Z,32.80
2023-04-10T00:50:16.794Z,31.60
2023-04-10T00:52:44.761Z,36.60
2023-04-10T00:55:12.944Z,34.10
2023-04-10T00:57:44.217Z,33.50
2023-04-10T01:00:13.237Z,36.00
2023-04-10T01:02:41.535Z,38.20
2023-04-10T01:05:11.043Z,35.40
2023-04-10T01:07:47.328Z,33.10
2023-04-10T01:10:18.336Z,32.10
2023-04-10T01:12:52.319Z,32.30
2023-04-10T01:15:21.302Z,32.70
2023-04-10T01:17:52.492Z,29.60
2023-04-10T01:20:24.336Z,31.10
2023-04-10T01:23:04.488Z,31.50
2023-04-10T01:25:44.976Z,34.30
2023-04-10T01:28:16.704Z,35.20
2023-04-10T01:30:47.238Z,33.20
2023-04-10T01:33:22.633Z,32.70
2023-04-10T01:35:52.548Z,36.10
2023-04-10T01:38:21.530Z,33.80
2023-04-10T01:40:52.550Z,35.60
2023-04-10T01:43:21.112Z,33.90
2023-04-10T01:45:51.272Z,38.70
2023-04-10T01:48:20.534Z,35.50
2023-04-10T01:50:48.813Z,44.90
2023-04-10T01:53:17.185Z,36.70
2023-04-10T01:55:44.974Z,39.50
2023-04-10T01:58:13.177Z,40.50
2023-04-10T02:00:44.656Z,80.00
2023-04-10T02:03:12.882Z,33.70
2023-04-10T02:05:41.013Z,56.70
2023-04-10T02:08:12.741Z,69.90
2023-04-10T02:10:40.637Z,77.70
2023-04-10T02:13:10.429Z,55.20
2023-04-10T02:15:40.491Z,62.20
2023-04-10T02:18:10.402Z,63.30
2023-04-10T02:20:38.242Z,54.20
2023-04-10T02:23:06.780Z,56.00
2023-04-10T02:25:35.322Z,37.90
2023-04-10T02:28:06.471Z,36.60
2023-04-10T02:30:35.874Z,37.70
2023-04-10T02:33:04.528Z,28.50
2023-04-10T02:35:33.204Z,50.20
2023-04-10T02:38:01.085Z,48.20
2023-04-10T02:40:28.910Z,35.40
2023-04-10T02:42:57.040Z,31.20
2023-04-10T02:45:24.916Z,29.70
2023-04-10T02:47:52.808Z,37.00
2023-04-10T02:50:20.978Z,42.60
2023-04-10T02:52:48.795Z,26.30
2023-04-10T02:55:16.828Z,27.20
2023-04-10T02:57:44.727Z,22.20
2023-04-10T03:00:15.152Z,20.30
2023-04-10T03:02:43.134Z,20.30
2023-04-10T03:05:11.725Z,24.90
2023-04-10T03:07:39.856Z,21.10
2023-04-10T03:10:08.585Z,29.90
2023-04-10T03:12:36.456Z,29.20
2023-04-10T03:15:04.541Z,23.60
2023-04-10T03:17:32.402Z,20.60
2023-04-10T03:20:01.082Z,21.20
2023-04-10T03:22:31.968Z,27.80
2023-04-10T03:24:59.752Z,23.60
2023-04-10T03:27:27.624Z,20.70
2023-04-10T03:29:55.483Z,27.30
2023-04-10T03:32:23.227Z,29.30
2023-04-10T03:34:51.011Z,28.40
2023-04-10T03:37:19.594Z,23.90
2023-04-10T03:39:47.301Z,23.90
2023-04-10T03:42:15.432Z,25.60
2023-04-10T03:44:43.190Z,26.50
2023-04-10T03:47:11.151Z,22.00
2023-04-10T03:49:39.232Z,32.80
2023-04-10T03:52:07.549Z,25.80
2023-04-10T03:54:35.520Z,29.20
2023-04-10T03:57:03.431Z,31.30
2023-04-10T03:59:38.244Z,28.70
2023-04-10T04:02:07.721Z,23.60
2023-04-10T04:04:35.759Z,28.30
2023-04-10T04:07:03.766Z,41.00
2023-04-10T04:09:31.617Z,41.80
2023-04-10T04:11:59.332Z,48.60
2023-04-10T04:14:27.419Z,55.50
2023-04-10T04:16:55.330Z,61.60
2023-04-10T04:19:22.965Z,38.20
2023-04-10T04:21:51.215Z,40.70
2023-04-10T04:24:19.590Z,44.70
2023-04-10T04:26:47.444Z,33.50
2023-04-10T04:29:15.658Z,52.80
2023-04-10T04:31:43.536Z,48.40
2023-04-10T04:34:11.379Z,37.20
2023-04-10T04:36:39.126Z,60.40
2023-04-10T04:39:07.160Z,52.00
2023-04-10T04:41:35.494Z,61.50
2023-04-10T04:44:03.451Z,59.80
2023-04-10T04:46:31.613Z,68.30
2023-04-10T04:49:00.480Z,44.00
2023-04-10T04:51:28.268Z,42.20
2023-04-10T04:53:56.782Z,45.20
2023-04-10T04:56:24.785Z,43.00
2023-04-10T04:58:52.696Z,45.30
2023-04-10T05:01:21.242Z,41.90
2023-04-10T05:03:49.082Z,36.70
2023-04-10T05:06:18.906Z,49.00
2023-04-10T05:08:46.736Z,58.70
2023-04-10T05:11:14.488Z,55.10
2023-04-10T05:13:42.342Z,42.80
2023-04-10T05:16:10.619Z,48.30
2023-04-10T05:18:38.500Z,60.30
2023-04-10T05:21:06.653Z,52.90
2023-04-10T05:23:34.501Z,54.60
2023-04-10T05:26:02.648Z,72.20
2023-04-10T05:28:30.965Z,50.70
2023-04-10T05:30:59.004Z,64.30
2023-04-10T05:33:27.308Z,52.50
2023-04-10T05:35:56.801Z,69.20
2023-04-10T05:38:25.071Z,65.00
2023-04-10T05:40:53.165Z,53.40
2023-04-10T05:43:21.908Z,72.70
2023-04-10T05:45:49.683Z,50.30
2023-04-10T05:48:17.574Z,68.60
2023-04-10T05:50:46.476Z,57.20
2023-04-10T05:53:15.080Z,58.00
2023-04-10T05:55:43.392Z,56.90
2023-04-10T05:58:11.643Z,57.90
2023-04-10T06:00:39.874Z,63.90
2023-04-10T06:03:08.102Z,61.30
2023-04-10T06:05:36.220Z,65.50
2023-04-10T06:08:04.294Z,54.40
2023-04-10T06:10:32.975Z,63.10
2023-04-10T06:13:00.964Z,50.50
2023-04-10T06:15:29.096Z,56.40
2023-04-10T06:17:57.004Z,58.00
2023-04-10T06:20:25.411Z,52.70
2023-04-10T06:22:53.736Z,49.50
2023-04-10T06:25:21.848Z,55.70
2023-04-10T06:27:49.695Z,49.70
2023-04-10T06:30:17.708Z,60.70
2023-04-10T06:32:46.481Z,50.40
2023-04-10T06:35:14.692Z,64.90
2023-04-10T06:37:42.882Z,65.20
2023-04-10T06:40:11.760Z,78.20
2023-04-10T06:42:39.544Z,66.50
2023-04-10T06:45:08.118Z,60.30
2023-04-10T06:47:36.119Z,47.70
2023-04-10T06:50:04.263Z,51.80
2023-04-10T06:52:32.501Z,50.10
2023-04-10T06:55:00.976Z,51.60
2023-04-10T06:57:29.396Z,50.20
2023-04-10T06:59:57.667Z,51.60
2023-04-10T07:02:25.693Z,48.80
2023-04-10T07:04:53.916Z,49.00
2023-04-10T07:07:22.192Z,45.40
2023-04-10T07:09:50.690Z,50.00
2023-04-10T07:12:18.649Z,51.70
2023-04-10T07:14:48.977Z,47.40
2023-04-10T07:17:18.246Z,48.20
2023-04-10T07:19:46.442Z,48.20
2023-04-10T07:22:16.007Z,50.10
2023-04-10T07:24:44.457Z,47.30
2023-04-10T07:27:13.105Z,39.70
2023-04-10T07:29:41.386Z,37.70
2023-04-10T07:32:10.969Z,43.00
2023-04-10T07:34:39.259Z,41.90
2023-04-10T07:37:07.335Z,41.20
2023-04-10T07:39:36.020Z,44.00
2023-04-10T07:42:11.345Z,43.60
2023-04-10T07:44:43.063Z,45.80
2023-04-10T07:47:11.580Z,44.10
2023-04-10T07:49:39.661Z,44.70
2023-04-10T07:52:07.528Z,40.80
2023-04-10T07:54:36.321Z,39.70
2023-04-10T07:57:04.219Z,39.10
2023-04-10T07:59:33.277Z,35.70
2023-04-10T08:02:01.424Z,36.40
2023-04-10T08:04:29.604Z,37.30
2023-04-10T08:06:58.041Z,35.30
2023-04-10T08:09:26.281Z,39.30
2023-04-10T08:11:54.254Z,38.90
2023-04-10T08:14:22.043Z,36.70
2023-04-10T08:16:49.931Z,39.40
2023-04-10T08:19:17.868Z,39.00
2023-04-10T08:21:45.912Z,37.90
2023-04-10T08:24:14.094Z,41.40
2023-04-10T08:26:42.473Z,38.70
2023-04-10T08:29:10.935Z,35.10
2023-04-10T08:31:39.113Z,33.70
2023-04-10T08:34:07.089Z,36.30
2023-04-10T08:36:35.062Z,38.10
2023-04-10T08:39:03.329Z,36.30
2023-04-10T08:41:31.604Z,32.20
2023-04-10T08:43:59.570Z,35.40
2023-04-10T08:46:29.263Z,36.10
